Duparquet, Canada
Current Conditions -  °F | °C
As of 1:00 PM on Sunday 21 Dec 2014 (Local Time) from CYUY Reporting Station
Broken Clouds Broken Clouds  
Wind Chill:   Ceiling: 7000
Heat Index: 12°   Visibility: 15mi
Dew Point: 10°   Wind: 5mph
Humidity: 92%   Direction: 170°S
Pressure: 30.22"   Gusts: NA
Location:  48.52°N, 79.22°W
Report Text: CYUY 211800Z 17004KT 15SM BKN070 BKN090 M11/M12 A3022 RMK AC5AC1 SLP266
Loading
Personal Weather Stations






























Interactive Weather Map New forecast layout! Learn more

10-Day Weather Forecast

Advertisements
Track Severe Weather on mobile